Terminal Aerodrome Forecast
Issued by NWS Cleveland, OH

Home | Current Version | Previous Version | Graphics & Text | Print | Product List | Glossary On
Versions: 1 2 3 4 5 6 7 8 9 10 11 12 13 14 15 16 17 18 19 20
000
FTUS41 KCLE 141100
TAFMFD
TAF
KMFD 141132Z 1412/1512 18024G38KT P6SM SCT060 OVC150
      TEMPO 1412/1414 6SM -SHRA OVC060
     FM141400 21024G38KT P6SM -SHRA SCT025 OVC050
      TEMPO 1414/1418 5SM -SHRA OVC025
     FM141800 22022G34KT P6SM -SHRA SCT015 OVC025
      TEMPO 1418/1421 4SM -SHRA BR OVC015
     FM142100 27015G25KT 6SM -SHRA VCTS SCT012CB OVC025
      TEMPO 1421/1424 4SM -SHRA BR OVC012
     FM150000 31012G20KT 5SM -DZ BR OVC010
     FM150400 33012G20KT 3SM -DZ BR OVC006=

USA.gov is the U.S. government's official web portal to all federal, state and local government web resources and services.